createdAt,value
2022-09-12T00:00:00.255Z,0.0
2022-09-12T00:05:00.264Z,0.0
2022-09-12T00:10:00.288Z,0.0
2022-09-12T00:15:00.260Z,0.0
2022-09-12T00:20:00.274Z,0.0
2022-09-12T00:25:00.258Z,0.0
2022-09-12T00:30:00.245Z,0.0
2022-09-12T00:35:00.261Z,0.0
2022-09-12T00:40:00.516Z,0.0
2022-09-12T00:45:00.247Z,0.0
2022-09-12T00:50:00.270Z,0.0
2022-09-12T00:55:00.304Z,0.0
2022-09-12T01:00:00.275Z,0.0
2022-09-12T01:05:00.268Z,0.0
2022-09-12T01:10:00.303Z,0.0
2022-09-12T01:15:00.283Z,0.0
2022-09-12T01:20:00.330Z,0.0
2022-09-12T01:25:00.239Z,0.0
2022-09-12T01:30:00.261Z,0.0
2022-09-12T01:35:00.262Z,0.0
2022-09-12T01:40:00.476Z,0.0
2022-09-12T01:45:00.266Z,0.0
2022-09-12T01:50:00.257Z,0.0
2022-09-12T01:55:00.296Z,0.0
2022-09-12T02:00:00.248Z,0.0
2022-09-12T02:05:00.257Z,0.0
2022-09-12T02:10:00.253Z,0.0
2022-09-12T02:15:00.364Z,0.0
2022-09-12T02:20:00.262Z,0.0
2022-09-12T02:25:00.286Z,0.0
2022-09-12T02:30:00.243Z,0.0
2022-09-12T02:35:00.322Z,0.0
2022-09-12T02:40:00.492Z,0.0
2022-09-12T02:45:00.349Z,0.0
2022-09-12T02:50:00.247Z,0.0
2022-09-12T02:55:00.304Z,0.0
2022-09-12T03:00:00.302Z,0.0
2022-09-12T03:05:00.270Z,0.0
2022-09-12T03:10:00.349Z,0.0
2022-09-12T03:15:00.221Z,0.0
2022-09-12T03:20:00.271Z,0.0
2022-09-12T03:25:00.297Z,0.0
2022-09-12T03:30:00.323Z,0.0
2022-09-12T03:35:00.279Z,0.0
2022-09-12T03:40:00.418Z,0.0
2022-09-12T03:45:00.345Z,0.0
2022-09-12T03:50:00.371Z,0.0
2022-09-12T03:55:00.255Z,0.0
2022-09-12T04:00:00.288Z,0.0
2022-09-12T04:05:00.252Z,0.0
2022-09-12T04:10:00.288Z,0.0
2022-09-12T04:15:00.295Z,0.0
2022-09-12T04:20:00.246Z,0.0
2022-09-12T04:25:00.249Z,0.0
2022-09-12T04:30:00.275Z,0.0
2022-09-12T04:35:00.224Z,0.0
2022-09-12T04:40:00.558Z,0.0
2022-09-12T04:45:00.245Z,0.0
2022-09-12T04:50:00.250Z,0.0
2022-09-12T04:55:00.372Z,0.0
2022-09-12T05:00:07.172Z,0.0
2022-09-12T05:05:00.246Z,0.0
2022-09-12T05:10:00.251Z,0.0
2022-09-12T05:15:00.279Z,0.0
2022-09-12T05:20:00.299Z,0.0
2022-09-12T05:25:00.366Z,0.0
2022-09-12T05:30:00.248Z,0.0
2022-09-12T05:35:00.253Z,0.0
2022-09-12T05:40:00.407Z,0.0
2022-09-12T05:45:00.261Z,0.0
2022-09-12T05:50:00.289Z,0.0
2022-09-12T05:55:00.268Z,0.0
2022-09-12T06:00:00.267Z,0.0
2022-09-12T06:05:00.286Z,0.0
2022-09-12T06:10:00.264Z,0.0
2022-09-12T06:15:00.314Z,0.0
2022-09-12T06:20:00.285Z,0.0
2022-09-12T06:25:00.298Z,0.0
2022-09-12T06:30:00.279Z,0.0
2022-09-12T06:35:00.269Z,0.0
2022-09-12T06:40:01.919Z,0.8
2022-09-12T06:45:00.256Z,0.0
2022-09-12T06:50:00.280Z,0.0
2022-09-12T06:55:00.243Z,0.4
2022-09-12T07:00:00.327Z,0.0
2022-09-12T07:05:00.318Z,0.1
2022-09-12T07:10:00.249Z,0.1
2022-09-12T07:15:00.275Z,0.0
2022-09-12T07:20:00.458Z,0.6
2022-09-12T07:25:00.275Z,1.0
2022-09-12T07:30:00.240Z,1.7
2022-09-12T07:35:00.258Z,0.2
2022-09-12T07:40:00.494Z,0.7
2022-09-12T07:45:00.324Z,0.5
2022-09-12T07:50:00.281Z,0.8
2022-09-12T07:55:00.240Z,0.4
2022-09-12T08:00:00.280Z,0.3
2022-09-12T08:05:00.274Z,2.0
2022-09-12T08:10:00.256Z,0.7
2022-09-12T08:15:00.288Z,0.3
2022-09-12T08:20:00.287Z,2.0
2022-09-12T08:25:00.307Z,0.8
2022-09-12T08:30:00.286Z,1.9
2022-09-12T08:35:00.311Z,0.1
2022-09-12T08:40:00.483Z,1.1
2022-09-12T08:45:00.295Z,1.1
2022-09-12T08:50:00.369Z,2.7
2022-09-12T08:55:00.265Z,1.9
2022-09-12T09:00:00.260Z,2.5
2022-09-12T09:05:00.377Z,1.7
2022-09-12T09:10:00.256Z,0.8
2022-09-12T09:15:00.287Z,2.2
2022-09-12T09:20:00.244Z,2.0
2022-09-12T09:25:00.296Z,3.0
2022-09-12T09:30:00.534Z,3.2
2022-09-12T09:35:00.304Z,1.8
2022-09-12T09:40:00.355Z,2.5
2022-09-12T09:45:00.292Z,2.2
2022-09-12T09:50:00.262Z,0.6
2022-09-12T09:55:00.374Z,1.7
2022-09-12T10:00:00.299Z,2.5
2022-09-12T10:05:00.426Z,1.7
2022-09-12T10:10:00.314Z,1.1
2022-09-12T10:15:00.360Z,2.9
2022-09-12T10:20:20.775Z,3.4
2022-09-12T10:25:00.266Z,1.9
2022-09-12T10:30:00.255Z,2.3
2022-09-12T10:35:00.305Z,1.2
2022-09-12T10:40:00.535Z,3.1
2022-09-12T10:45:00.276Z,2.1
2022-09-12T10:50:00.254Z,2.3
2022-09-12T10:55:00.268Z,3.3
2022-09-12T11:00:00.330Z,1.3
2022-09-12T11:05:00.288Z,2.7
2022-09-12T11:10:00.381Z,2.0
2022-09-12T11:15:00.259Z,3.3
2022-09-12T11:20:00.277Z,0.7
2022-09-12T11:25:00.258Z,3.4
2022-09-12T11:30:00.301Z,4.0
2022-09-12T11:35:00.302Z,5.0
2022-09-12T11:40:00.402Z,2.8
2022-09-12T11:45:00.299Z,2.6
2022-09-12T11:50:00.260Z,0.7
2022-09-12T11:55:00.298Z,4.2
2022-09-12T12:00:00.437Z,2.2
2022-09-12T12:05:00.305Z,0.6
2022-09-12T12:10:00.253Z,4.8
2022-09-12T12:15:00.290Z,2.2
2022-09-12T12:20:08.288Z,4.6
2022-09-12T12:25:00.268Z,3.2
2022-09-12T12:30:00.292Z,3.1
2022-09-12T12:35:00.278Z,2.0
2022-09-12T12:40:00.432Z,3.4
2022-09-12T12:45:00.316Z,3.8
2022-09-12T12:50:00.243Z,2.6
2022-09-12T12:55:00.269Z,3.3
2022-09-12T13:00:00.351Z,2.1
2022-09-12T13:05:00.237Z,2.2
2022-09-12T13:10:00.241Z,4.8
2022-09-12T13:15:00.292Z,2.5
2022-09-12T13:20:27.065Z,1.2
2022-09-12T13:25:00.228Z,0.8
2022-09-12T13:30:00.299Z,1.9
2022-09-12T13:35:00.220Z,1.4
2022-09-12T13:40:00.425Z,1.6
2022-09-12T13:45:00.364Z,0.8
2022-09-12T13:50:00.248Z,0.8
2022-09-12T13:55:00.283Z,2.1
2022-09-12T14:00:00.978Z,2.3
2022-09-12T14:05:00.235Z,1.1
2022-09-12T14:10:00.289Z,1.0
2022-09-12T14:15:00.263Z,0.8
2022-09-12T14:20:00.263Z,1.0
2022-09-12T14:25:00.326Z,2.4
2022-09-12T14:30:00.248Z,1.6
2022-09-12T14:35:00.261Z,0.3
2022-09-12T14:40:00.542Z,1.5
2022-09-12T14:45:00.261Z,3.1
2022-09-12T14:50:00.513Z,1.9
2022-09-12T14:55:00.236Z,1.4
2022-09-12T15:00:00.247Z,0.3
2022-09-12T15:05:00.257Z,0.0
2022-09-12T15:10:00.842Z,0.4
2022-09-12T15:15:00.351Z,0.0
2022-09-12T15:20:00.558Z,0.0
2022-09-12T15:25:00.261Z,1.5
2022-09-12T15:30:00.440Z,0.6
2022-09-12T15:35:00.299Z,0.7
2022-09-12T15:40:00.493Z,1.0
2022-09-12T15:45:02.959Z,0.6
2022-09-12T15:50:00.527Z,0.6
2022-09-12T15:55:00.232Z,0.0
2022-09-12T16:00:00.329Z,0.0
2022-09-12T16:05:00.259Z,0.2
2022-09-12T16:10:00.325Z,0.5
2022-09-12T16:15:00.292Z,0.0
2022-09-12T16:20:00.240Z,0.3
2022-09-12T16:25:00.499Z,0.0
2022-09-12T16:30:02.698Z,0.1
2022-09-12T16:35:00.282Z,0.0
2022-09-12T16:40:00.511Z,0.0
2022-09-12T16:45:00.310Z,0.0
2022-09-12T16:50:00.313Z,0.0
2022-09-12T16:55:00.295Z,0.0
2022-09-12T17:00:00.292Z,0.0
2022-09-12T17:05:00.290Z,0.0
2022-09-12T17:10:00.248Z,0.0
2022-09-12T17:15:00.251Z,0.0
2022-09-12T17:20:00.344Z,0.0
2022-09-12T17:25:00.253Z,0.0
2022-09-12T17:30:00.315Z,0.0
2022-09-12T17:35:03.854Z,0.0
2022-09-12T17:40:00.489Z,0.0
2022-09-12T17:45:00.302Z,0.0
2022-09-12T17:50:30.630Z,0.0
2022-09-12T17:55:00.231Z,0.0
2022-09-12T18:00:00.311Z,0.0
2022-09-12T18:05:00.268Z,0.0
2022-09-12T18:10:00.245Z,0.0
2022-09-12T18:15:00.301Z,0.0
2022-09-12T18:20:00.272Z,0.0
2022-09-12T18:25:00.269Z,0.0
2022-09-12T18:30:20.897Z,0.0
2022-09-12T18:35:00.228Z,0.0
2022-09-12T18:40:00.546Z,0.0
2022-09-12T18:45:00.257Z,0.0
2022-09-12T18:50:00.259Z,0.0
2022-09-12T18:55:00.247Z,0.0
2022-09-12T19:00:00.282Z,0.0
2022-09-12T19:05:00.362Z,0.0
2022-09-12T19:15:00.293Z,0.0
2022-09-12T19:20:00.274Z,0.0
2022-09-12T19:25:00.242Z,0.0
2022-09-12T19:30:00.295Z,0.0
2022-09-12T19:35:00.248Z,0.0
2022-09-12T19:40:00.423Z,0.0
2022-09-12T19:45:00.277Z,0.0
2022-09-12T19:50:00.331Z,0.0
2022-09-12T19:55:00.255Z,0.0
2022-09-12T20:00:00.368Z,0.0
2022-09-12T20:05:00.280Z,0.0
2022-09-12T20:10:00.339Z,0.0
2022-09-12T20:15:00.237Z,0.0
2022-09-12T20:20:00.338Z,0.0
2022-09-12T20:25:00.275Z,0.0
2022-09-12T20:30:00.314Z,0.0
2022-09-12T20:35:00.234Z,0.0
2022-09-12T20:40:00.457Z,0.0
2022-09-12T20:45:00.268Z,0.0
2022-09-12T20:50:00.313Z,0.0
2022-09-12T20:55:00.243Z,0.0
2022-09-12T21:00:00.323Z,0.0
2022-09-12T21:05:00.211Z,0.0
2022-09-12T21:10:00.435Z,0.0
2022-09-12T21:15:00.330Z,0.0
2022-09-12T21:20:00.310Z,0.0
2022-09-12T21:25:00.245Z,0.0
2022-09-12T21:30:00.320Z,0.0
2022-09-12T21:35:00.268Z,0.0
2022-09-12T21:40:00.554Z,0.0
2022-09-12T21:45:00.260Z,0.0
2022-09-12T21:50:00.281Z,0.0
2022-09-12T21:55:00.255Z,0.0
2022-09-12T22:00:00.334Z,0.0
2022-09-12T22:05:00.230Z,0.0
2022-09-12T22:10:00.288Z,0.0
2022-09-12T22:15:36.206Z,0.0
2022-09-12T22:20:00.256Z,0.0
2022-09-12T22:25:00.255Z,0.0
2022-09-12T22:30:00.379Z,0.0
2022-09-12T22:35:00.236Z,0.0
2022-09-12T22:40:00.482Z,0.0
2022-09-12T22:45:00.233Z,0.0
2022-09-12T22:50:00.390Z,0.0
2022-09-12T22:55:00.260Z,0.0
2022-09-12T23:00:00.343Z,0.0
2022-09-12T23:05:00.265Z,0.0
2022-09-12T23:10:00.290Z,0.4
2022-09-12T23:15:00.235Z,0.0
2022-09-12T23:20:00.346Z,0.0
2022-09-12T23:25:00.226Z,0.0
2022-09-12T23:30:00.260Z,0.0
2022-09-12T23:35:00.309Z,0.0
2022-09-12T23:40:00.401Z,0.0
2022-09-12T23:45:00.222Z,0.0
2022-09-12T23:50:00.296Z,0.0
2022-09-12T23:55:00.239Z,0.0
